Time;durP1;ratioP1;P1;durP2;ratioP2;P2;SDS_P1;SDS_P2;PMS_P1;PMS_P2;Temp;Humidity;BMP_temperature;BMP_pressure;BME280_temperature;BME280_humidity;BME280_pressure;Samples;Min_cycle;Max_cycle;Signal;HPM_P1;HPM_P2
2022/03/05 00:01:38;;;;;;;38.63;21.07;;;;;;;-1.95;74.61;100577.91;1310392;94;21265;-77
2022/03/05 00:04:05;;;;;;;34.85;18.70;;;;;;;-1.93;74.44;100569.59;1322683;93;21318;-78
2022/03/05 00:06:33;;;;;;;39.18;19.70;;;;;;;-1.88;74.49;100569.41;1328590;92;21303;-78
2022/03/05 00:09:01;;;;;;;39.67;20.20;;;;;;;-1.85;74.72;100568.81;1328862;92;21496;-79
2022/03/05 00:11:28;;;;;;;37.70;18.42;;;;;;;-1.75;74.16;100570.58;1315717;93;21465;-79
2022/03/05 00:13:55;;;;;;;35.20;20.32;;;;;;;-1.71;74.34;100572.58;1329343;93;21454;-78
2022/03/05 00:16:22;;;;;;;36.60;19.25;;;;;;;-1.66;74.21;100577.13;1329435;93;21289;-78
2022/03/05 00:18:49;;;;;;;36.40;20.95;;;;;;;-1.59;74.37;100578.53;1329517;92;21441;-78
2022/03/05 00:21:17;;;;;;;33.85;20.43;;;;;;;-1.52;74.00;100571.34;1329417;92;21288;-78
2022/03/05 00:23:44;;;;;;;40.28;22.52;;;;;;;-1.47;74.18;100576.69;1315960;94;21332;-78
2022/03/05 00:26:13;;;;;;;43.78;21.70;;;;;;;-1.44;74.14;100575.72;1329599;93;21370;-79
2022/03/05 00:28:41;;;;;;;32.55;18.35;;;;;;;-1.38;73.46;100572.42;1329949;93;21406;-79
2022/03/05 00:31:08;;;;;;;38.13;19.55;;;;;;;-1.38;73.94;100567.23;1328027;93;21259;-79
2022/03/05 00:33:35;;;;;;;31.97;18.48;;;;;;;-1.32;73.26;100566.54;1328478;93;21266;-79
2022/03/05 00:36:03;;;;;;;34.00;19.45;;;;;;;-1.28;73.31;100562.91;1328390;93;21200;-80
2022/03/05 00:38:30;;;;;;;41.15;22.35;;;;;;;-1.29;73.60;100562.53;1328065;93;22293;-79
2022/03/05 00:40:57;;;;;;;23.65;11.75;;;;;;;-1.26;73.39;100561.09;1322763;93;21409;-79
2022/03/05 00:43:25;;;;;;;37.95;19.75;;;;;;;-1.28;73.42;100553.36;1340732;92;22892;-79
2022/03/05 00:45:52;;;;;;;36.60;18.55;;;;;;;-1.22;73.16;100559.58;1340572;92;21431;-79
2022/03/05 00:48:19;;;;;;;34.75;18.00;;;;;;;-1.20;73.26;100560.82;1340772;92;22333;-79
2022/03/05 00:50:48;;;;;;;41.60;19.15;;;;;;;-1.17;73.00;100560.68;1340649;91;22790;-79
2022/03/05 00:53:17;;;;;;;37.67;18.60;;;;;;;-1.20;73.28;100562.12;1340515;90;22193;-79
2022/03/05 00:55:44;;;;;;;38.98;18.20;;;;;;;-1.18;73.25;100558.55;1340795;90;21564;-79
2022/03/05 00:58:13;;;;;;;40.58;18.98;;;;;;;-1.20;73.47;100561.66;1340553;91;21549;-79
2022/03/05 01:00:41;;;;;;;37.93;18.75;;;;;;;-1.23;73.52;100563.09;1332801;93;21371;-79
2022/03/05 01:03:08;;;;;;;38.40;19.55;;;;;;;-1.22;73.50;100562.63;1340460;92;21298;-79
2022/03/05 01:05:35;;;;;;;48.70;22.90;;;;;;;-1.14;73.04;100564.43;1337637;92;21557;-79
2022/03/05 01:08:03;;;;;;;34.20;16.87;;;;;;;-1.16;73.19;100561.05;1337821;92;21483;-79
2022/03/05 01:10:30;;;;;;;30.82;17.67;;;;;;;-1.13;73.01;100562.21;1337628;92;21349;-79
2022/03/05 01:12:57;;;;;;;34.85;18.57;;;;;;;-1.16;73.26;100559.30;1337739;91;21335;-80
2022/03/05 01:15:24;;;;;;;34.08;18.82;;;;;;;-1.14;73.17;100565.73;1337568;92;21395;-79
2022/03/05 01:17:51;;;;;;;39.42;18.90;;;;;;;-1.15;73.33;100562.76;1337887;92;21350;-80
2022/03/05 01:20:19;;;;;;;34.15;17.27;;;;;;;-1.16;73.54;100561.05;1337784;91;21305;-81
2022/03/05 01:22:46;;;;;;;39.13;20.72;;;;;;;-1.19;73.85;100564.62;1337707;92;22349;-80
2022/03/05 01:25:13;;;;;;;38.00;19.07;;;;;;;-1.19;73.88;100565.92;1337774;92;21380;-80
2022/03/05 01:27:40;;;;;;;32.20;16.87;;;;;;;-1.22;73.98;100560.03;1337580;91;21261;-80
2022/03/05 01:30:08;;;;;;;32.42;17.73;;;;;;;-1.24;74.33;100556.20;1343934;92;21424;-80
2022/03/05 01:32:35;;;;;;;33.70;16.05;;;;;;;-1.20;74.28;100558.22;1344018;91;21313;-80
2022/03/05 01:35:02;;;;;;;35.40;19.00;;;;;;;-1.23;74.41;100559.20;1344034;91;21327;-80
2022/03/05 01:37:30;;;;;;;32.33;16.07;;;;;;;-1.16;74.32;100562.35;1343777;91;21490;-80
2022/03/05 01:39:57;;;;;;;40.52;20.80;;;;;;;-1.14;74.41;100561.84;1343855;91;21416;-80
2022/03/05 01:42:25;;;;;;;34.00;17.85;;;;;;;-1.10;74.42;100559.47;1347752;90;21465;-81
2022/03/05 01:44:52;;;;;;;38.90;18.00;;;;;;;-1.07;74.53;100559.33;1347989;91;22684;-81
2022/03/05 01:47:19;;;;;;;40.60;18.42;;;;;;;-1.00;74.40;100564.64;1347952;90;21495;-81
2022/03/05 01:49:47;;;;;;;35.05;18.00;;;;;;;-1.00;74.64;100560.75;1334400;92;21358;-80
2022/03/05 01:52:14;;;;;;;33.88;18.15;;;;;;;-0.93;74.42;100562.59;1334224;93;22319;-80
2022/03/05 01:54:41;;;;;;;39.40;18.57;;;;;;;-0.86;74.20;100565.74;1334448;93;21298;-80
2022/03/05 01:57:11;;;;;;;39.67;19.42;;;;;;;-0.81;74.25;100558.58;1334432;93;21299;-80
2022/03/05 01:59:39;;;;;;;35.15;17.55;;;;;;;-0.81;74.57;100559.88;1334440;93;21460;-80
2022/03/05 02:02:06;;;;;;;32.60;19.17;;;;;;;-0.75;74.38;100562.19;1334460;93;21498;-80
2022/03/05 02:04:33;;;;;;;36.55;19.82;;;;;;;-0.65;74.19;100558.25;1334330;92;21483;-80
2022/03/05 02:07:00;;;;;;;39.90;19.67;;;;;;;-0.60;74.26;100560.64;1334330;92;21512;-79
2022/03/05 02:09:27;;;;;;;35.15;17.45;;;;;;;-0.55;74.11;100559.95;1326813;93;22422;-79
2022/03/05 02:11:54;;;;;;;35.15;18.23;;;;;;;-0.53;74.01;100562.86;1334532;91;22280;-79
2022/03/05 02:14:22;;;;;;;35.00;18.80;;;;;;;-0.54;73.89;100559.88;1334517;93;21457;-80
2022/03/05 02:16:50;;;;;;;29.87;14.50;;;;;;;-0.52;73.74;100551.56;1334416;93;21343;-80
2022/03/05 02:19:17;;;;;;;37.23;18.45;;;;;;;-0.54;73.93;100557.28;1334342;93;21410;-79
2022/03/05 02:21:48;;;;;;;35.33;20.70;;;;;;;-0.57;74.27;100560.03;1334325;93;22378;-79
2022/03/05 02:24:31;;;;;;;35.05;15.93;;;;;;;-0.56;74.19;100559.11;1334634;93;21306;-79
2022/03/05 02:26:46;;;;;;;41.85;20.15;;;;;;;-0.55;74.31;100560.78;1325585;93;21507;-79
2022/03/05 02:29:13;;;;;;;34.50;19.45;;;;;;;-0.59;74.43;100557.95;1334310;92;21594;-80
2022/03/05 02:31:40;;;;;;;35.28;18.57;;;;;;;-0.59;74.30;100559.72;1334124;93;21521;-79
2022/03/05 02:34:07;;;;;;;40.48;19.55;;;;;;;-0.64;74.52;100566.42;1334112;92;21519;-79
2022/03/05 02:36:34;;;;;;;38.23;20.20;;;;;;;-0.68;74.52;100567.50;1334256;93;21550;-79
2022/03/05 02:39:01;;;;;;;37.38;19.52;;;;;;;-0.68;73.94;100566.20;1334090;93;21484;-79
2022/03/05 02:41:28;;;;;;;40.50;19.67;;;;;;;-0.75;74.42;100568.69;1334343;91;21400;-78
2022/03/05 02:43:55;;;;;;;30.43;17.07;;;;;;;-0.79;74.37;100574.48;1334367;92;22400;-79
2022/03/05 02:46:29;;;;;;;35.17;18.35;;;;;;;-0.92;74.98;100575.99;1333886;93;22319;-79
2022/03/05 02:48:57;;;;;;;32.23;16.77;;;;;;;-0.95;74.76;100575.67;1334094;93;21320;-79
2022/03/05 02:51:24;;;;;;;43.02;20.08;;;;;;;-0.99;74.91;100582.37;1334161;93;21299;-79
2022/03/05 02:53:51;;;;;;;33.45;18.90;;;;;;;-1.08;75.33;100581.03;1334086;93;22223;-79
2022/03/05 02:56:18;;;;;;;32.00;18.50;;;;;;;-1.07;74.52;100583.17;1334367;92;21328;-79
2022/03/05 02:58:45;;;;;;;40.08;19.98;;;;;;;-1.18;75.83;100583.64;1334296;93;21305;-79
2022/03/05 03:01:12;;;;;;;34.35;18.32;;;;;;;-1.22;75.81;100580.81;1334105;91;21358;-79
2022/03/05 03:03:39;;;;;;;52.80;22.10;;;;;;;-1.29;76.33;100584.61;1334258;93;21247;-80
2022/03/05 03:06:06;;;;;;;31.02;17.10;;;;;;;-1.32;75.89;100584.28;1334280;91;21416;-79
2022/03/05 03:08:34;;;;;;;31.15;16.97;;;;;;;-1.39;77.06;100584.99;1334071;93;21261;-79
2022/03/05 03:11:02;;;;;;;43.23;19.73;;;;;;;-1.42;77.45;100591.62;1334100;93;21446;-79
2022/03/05 03:13:29;;;;;;;40.60;19.10;;;;;;;-1.44;77.41;100590.87;1352991;91;21340;-80
2022/03/05 03:15:56;;;;;;;43.58;21.73;;;;;;;-1.49;77.89;100594.57;1352979;91;21318;-79
2022/03/05 03:18:23;;;;;;;35.43;18.30;;;;;;;-1.50;77.70;100585.91;1352758;91;21392;-79
2022/03/05 03:20:51;;;;;;;44.53;21.73;;;;;;;-1.53;78.34;100591.24;1352819;91;21402;-79
2022/03/05 03:23:18;;;;;;;46.18;21.77;;;;;;;-1.54;78.72;100589.56;1352681;91;21399;-80
2022/03/05 03:25:45;;;;;;;41.80;20.05;;;;;;;-1.56;78.88;100588.78;1339916;92;21384;-78
2022/03/05 03:28:12;;;;;;;41.55;19.40;;;;;;;-1.60;79.33;100584.64;1352393;91;21311;-79
2022/03/05 03:30:39;;;;;;;42.85;22.20;;;;;;;-1.58;79.10;100588.03;1352738;91;22876;-79
2022/03/05 03:33:06;;;;;;;36.70;20.45;;;;;;;-1.62;79.25;100591.64;1352715;91;21325;-78
2022/03/05 03:35:33;;;;;;;39.88;20.05;;;;;;;-1.67;79.89;100593.59;1352971;90;21302;-77
2022/03/05 03:38:01;;;;;;;40.70;20.43;;;;;;;-1.67;79.87;100593.16;1352979;91;21340;-78
2022/03/05 03:40:28;;;;;;;32.40;18.10;;;;;;;-1.70;80.18;100591.96;1334298;92;22303;-77
2022/03/05 03:42:55;;;;;;;42.40;19.15;;;;;;;-1.75;80.76;100587.91;1333722;91;22318;-78
2022/03/05 03:45:23;;;;;;;38.53;19.80;;;;;;;-1.78;80.83;100588.88;1321936;94;21332;-78
2022/03/05 03:47:52;;;;;;;38.75;20.32;;;;;;;-1.79;81.22;100594.13;1355708;91;21325;-78
2022/03/05 03:50:23;;;;;;;43.08;21.00;;;;;;;-1.78;81.22;100593.20;1355867;91;21405;-78
2022/03/05 03:52:51;;;;;;;42.95;22.02;;;;;;;-1.74;80.40;100593.02;1356116;91;21370;-78
2022/03/05 03:55:21;;;;;;;38.92;21.70;;;;;;;-1.76;80.80;100591.39;1348662;91;21317;-78
2022/03/05 03:57:48;;;;;;;37.78;21.42;;;;;;;-1.81;81.37;100595.50;1338701;92;21450;-78
2022/03/05 04:00:18;;;;;;;41.37;22.07;;;;;;;-1.82;81.55;100595.09;1354125;91;21454;-77
2022/03/05 04:02:45;;;;;;;38.45;20.50;;;;;;;-1.80;81.36;100593.74;1356829;91;22318;-77
2022/03/05 04:05:12;;;;;;;40.00;20.08;;;;;;;-1.80;81.65;100600.23;1351177;90;21307;-78
2022/03/05 04:10:25;;;;;;;41.80;21.57;;;;;;;-1.82;81.89;100599.81;1338607;92;22315;-77
2022/03/05 04:12:52;;;;;;;40.98;20.75;;;;;;;-1.80;81.49;100600.23;1339033;92;22263;-78
2022/03/05 04:15:19;;;;;;;40.15;21.57;;;;;;;-1.80;81.74;100598.93;1320666;94;22392;-78
2022/03/05 04:17:47;;;;;;;43.33;22.55;;;;;;;-1.79;81.57;100604.04;1338679;92;22396;-77
2022/03/05 04:20:14;;;;;;;35.63;19.45;;;;;;;-1.78;81.51;100605.75;1321728;93;23100;-78
2022/03/05 04:22:41;;;;;;;44.50;22.10;;;;;;;-1.77;81.18;100602.69;1338601;92;22470;-78
2022/03/05 04:25:09;;;;;;;35.00;20.27;;;;;;;-1.75;80.82;100609.51;1338838;92;22211;-77
2022/03/05 04:27:37;;;;;;;44.65;22.60;;;;;;;-1.76;81.39;100608.26;1344451;92;21295;-78
2022/03/05 04:30:06;;;;;;;46.58;23.47;;;;;;;-1.77;81.06;100610.48;1356360;91;21302;-78
2022/03/05 04:32:34;;;;;;;37.45;20.55;;;;;;;-1.79;81.09;100613.13;1356971;91;22306;-78
2022/03/05 04:35:02;;;;;;;43.90;19.95;;;;;;;-1.83;81.39;100612.41;1357268;91;21294;-78
2022/03/05 04:37:29;;;;;;;35.70;20.95;;;;;;;-1.87;82.70;100617.35;1357417;91;21339;-78
2022/03/05 04:39:56;;;;;;;40.28;21.17;;;;;;;-1.87;82.58;100618.66;1357321;91;21250;-78
2022/03/05 04:42:24;;;;;;;36.53;18.35;;;;;;;-1.88;82.35;100626.02;1338980;93;21428;-78
2022/03/05 04:44:51;;;;;;;43.40;22.00;;;;;;;-1.92;83.03;100620.59;1355674;91;22227;-78
2022/03/05 04:47:18;;;;;;;36.33;19.62;;;;;;;-1.91;83.13;100624.86;1355514;91;21458;-78
2022/03/05 04:49:45;;;;;;;41.15;20.55;;;;;;;-1.93;83.24;100627.95;1355732;90;22425;-78
2022/03/05 04:52:12;;;;;;;34.23;19.05;;;;;;;-1.93;83.25;100628.41;1355810;91;21365;-79
2022/03/05 04:54:39;;;;;;;39.30;20.35;;;;;;;-1.96;83.59;100634.57;1355949;91;21339;-79
2022/03/05 04:57:06;;;;;;;38.25;22.42;;;;;;;-1.96;84.00;100633.27;1355863;91;21421;-78
2022/03/05 04:59:34;;;;;;;37.80;20.88;;;;;;;-1.96;84.22;100631.98;1355570;91;21303;-79
2022/03/05 05:02:01;;;;;;;38.67;20.48;;;;;;;-1.96;83.72;100639.76;1336659;93;22691;-78
2022/03/05 05:04:29;;;;;;;45.48;22.58;;;;;;;-1.97;83.50;100631.59;1355817;90;22285;-78
2022/03/05 05:06:56;;;;;;;43.63;22.27;;;;;;;-1.95;83.24;100634.14;1355844;91;21325;-78
2022/03/05 05:09:23;;;;;;;45.80;20.08;;;;;;;-1.95;83.21;100642.77;1355798;91;22823;-78
2022/03/05 05:11:51;;;;;;;48.52;25.45;;;;;;;-1.99;83.53;100646.38;1355653;90;21303;-78
2022/03/05 05:14:18;;;;;;;41.18;22.93;;;;;;;-1.98;83.44;100648.54;1355754;91;21332;-78
2022/03/05 05:16:45;;;;;;;37.33;19.90;;;;;;;-2.00;83.25;100645.98;1355642;90;21302;-78
2022/03/05 05:19:27;;;;;;;45.85;23.75;;;;;;;-2.02;83.39;100645.66;1355741;91;21287;-79
2022/03/05 05:21:57;;;;;;;42.40;22.55;;;;;;;-2.01;82.71;100648.20;1355733;91;21288;-78
2022/03/05 05:24:27;;;;;;;40.50;21.80;;;;;;;-2.02;82.80;100650.39;1355721;91;21377;-79
2022/03/05 05:26:56;;;;;;;42.83;21.07;;;;;;;-2.05;83.30;100651.81;1355751;91;21413;-78
2022/03/05 05:29:23;;;;;;;50.83;23.60;;;;;;;-2.09;83.28;100655.45;1355779;90;21428;-78
2022/03/05 05:31:51;;;;;;;38.33;16.65;;;;;;;-2.09;83.53;100662.77;1355713;91;21332;-78
2022/03/05 05:34:18;;;;;;;40.43;20.88;;;;;;;-2.09;83.89;100661.47;1355955;90;21308;-77
2022/03/05 05:36:45;;;;;;;42.20;21.65;;;;;;;-2.11;84.19;100660.68;1355717;91;21295;-78
2022/03/05 05:39:12;;;;;;;40.03;20.02;;;;;;;-2.06;84.06;100659.21;1355757;90;21317;-78
2022/03/05 05:41:40;;;;;;;41.55;20.72;;;;;;;-1.99;83.42;100672.77;1355536;91;21302;-77
2022/03/05 05:44:10;;;;;;;42.53;22.02;;;;;;;-1.99;83.34;100658.05;1350522;91;21414;-77
2022/03/05 05:46:38;;;;;;;41.33;21.85;;;;;;;-1.94;83.67;100670.38;1349751;92;22404;-77
2022/03/05 05:49:05;;;;;;;37.53;19.98;;;;;;;-1.93;84.32;100662.98;1349406;92;21303;-78
2022/03/05 05:51:33;;;;;;;48.70;23.30;;;;;;;-1.86;83.95;100667.03;1349613;90;21516;-77
2022/03/05 05:54:01;;;;;;;43.52;21.33;;;;;;;-1.82;84.05;100667.28;1349411;92;21436;-78
2022/03/05 05:56:28;;;;;;;35.28;20.40;;;;;;;-1.76;84.11;100667.94;1349349;92;21295;-78
2022/03/05 05:58:55;;;;;;;39.58;18.65;;;;;;;-1.70;83.96;100672.88;1335358;93;21451;-79
2022/03/05 06:01:22;;;;;;;44.63;23.27;;;;;;;-1.67;83.85;100677.94;1349555;91;21310;-79
2022/03/05 06:03:50;;;;;;;47.90;20.02;;;;;;;-1.65;83.91;100679.56;1349611;91;21347;-79
2022/03/05 06:06:17;;;;;;;44.42;24.12;;;;;;;-1.63;83.72;100684.70;1349468;92;21443;-78
2022/03/05 06:08:44;;;;;;;44.27;24.57;;;;;;;-1.59;83.33;100684.95;1335628;93;21517;-79
2022/03/05 06:11:11;;;;;;;50.80;23.62;;;;;;;-1.61;83.96;100682.90;1359070;92;21518;-80
2022/03/05 06:13:38;;;;;;;44.98;24.52;;;;;;;-1.54;83.56;100685.61;1349604;90;21486;-80
2022/03/05 06:16:06;;;;;;;47.33;24.43;;;;;;;-1.50;83.40;100688.92;1349589;90;21469;-80
2022/03/05 06:18:35;;;;;;;42.43;22.13;;;;;;;-1.48;83.62;100687.95;1349642;90;21436;-80
2022/03/05 06:21:02;;;;;;;39.70;18.85;;;;;;;-1.44;83.79;100689.52;1349610;92;21339;-80
2022/03/05 06:23:30;;;;;;;41.98;21.52;;;;;;;-1.41;83.91;100690.69;1349467;90;21310;-79
2022/03/05 06:25:57;;;;;;;48.50;25.35;;;;;;;-1.36;84.17;100693.91;1349590;90;21466;-80
2022/03/05 06:28:24;;;;;;;46.10;23.70;;;;;;;-1.28;83.99;100697.95;1349636;92;21439;-80
2022/03/05 06:30:51;;;;;;;41.28;22.22;;;;;;;-1.22;84.10;100701.12;1349457;92;21399;-81
2022/03/05 06:33:18;;;;;;;48.48;23.40;;;;;;;-1.06;84.03;100697.42;1349502;92;21428;-80
2022/03/05 06:35:46;;;;;;;39.78;22.05;;;;;;;-0.93;83.76;100692.05;1349551;91;21562;-79
2022/03/05 06:38:13;;;;;;;43.90;22.10;;;;;;;-0.77;83.35;100692.69;1337333;90;21400;-80
2022/03/05 06:40:40;;;;;;;51.42;22.07;;;;;;;-0.63;82.86;100700.71;1327514;94;21340;-80
2022/03/05 06:43:07;;;;;;;42.33;23.35;;;;;;;-0.49;82.67;100698.33;1345815;91;21429;-80
2022/03/05 06:45:35;;;;;;;42.95;22.87;;;;;;;-0.31;82.47;100709.62;1335533;92;21399;-79
2022/03/05 06:48:04;;;;;;;37.05;20.92;;;;;;;-0.21;81.90;100710.48;1349554;92;21303;-80
2022/03/05 06:50:32;;;;;;;46.18;22.62;;;;;;;-0.11;81.33;100708.69;1349667;92;21451;-79
2022/03/05 06:52:59;;;;;;;34.43;20.20;;;;;;;0.02;80.66;100715.91;1349616;90;21303;-80
2022/03/05 06:55:26;;;;;;;43.95;22.45;;;;;;;0.12;80.34;100715.87;1349803;92;21302;-79
2022/03/05 06:57:53;;;;;;;46.50;22.52;;;;;;;0.26;79.75;100718.64;1350142;92;21414;-79
2022/03/05 07:00:20;;;;;;;32.67;17.90;;;;;;;0.41;79.15;100721.79;1349458;92;21439;-81
2022/03/05 07:02:48;;;;;;;32.98;17.55;;;;;;;0.47;77.97;100720.64;1349359;92;21487;-81
2022/03/05 07:05:15;;;;;;;37.83;21.02;;;;;;;0.58;77.65;100723.56;1349063;92;21465;-80
2022/03/05 07:07:43;;;;;;;35.90;20.48;;;;;;;0.65;76.90;100726.69;1349256;92;21265;-80
2022/03/05 07:10:10;;;;;;;39.70;19.65;;;;;;;0.77;76.46;100718.25;1335255;93;21525;-81
2022/03/05 07:12:37;;;;;;;40.17;20.97;;;;;;;0.83;76.04;100717.94;1349209;92;21361;-80
2022/03/05 07:15:06;;;;;;;35.00;19.95;;;;;;;0.98;75.62;100724.16;1349336;92;21346;-80
2022/03/05 07:17:33;;;;;;;35.80;19.70;;;;;;;1.11;74.78;100724.34;1349510;92;21340;-80
2022/03/05 07:20:01;;;;;;;28.67;16.60;;;;;;;1.18;74.14;100727.03;1349744;92;22061;-80
2022/03/05 07:22:28;;;;;;;42.17;17.93;;;;;;;1.30;72.64;100729.45;1349587;92;21911;-81
2022/03/05 07:24:55;;;;;;;38.47;17.43;;;;;;;1.37;72.40;100729.95;1349528;92;21700;-80
2022/03/05 07:27:22;;;;;;;30.17;17.33;;;;;;;1.45;71.79;100731.70;1349635;92;21698;-80
2022/03/05 07:29:49;;;;;;;32.87;16.33;;;;;;;1.52;71.32;100738.27;1349362;92;22604;-80
2022/03/05 07:32:17;;;;;;;31.80;18.67;;;;;;;1.50;70.22;100734.91;1349714;90;21799;-79
2022/03/05 07:34:44;;;;;;;31.23;16.83;;;;;;;1.63;69.85;100734.61;1349523;90;21636;-80
2022/03/05 07:37:11;;;;;;;30.37;17.40;;;;;;;1.75;68.96;100740.47;1349724;92;21788;-80
2022/03/05 07:39:38;;;;;;;25.50;14.83;;;;;;;1.92;68.43;100734.80;1349658;92;21725;-81
2022/03/05 07:42:06;;;;;;;22.70;12.63;;;;;;;2.01;67.93;100743.41;1349497;92;21694;-81
2022/03/05 07:44:34;;;;;;;26.83;15.90;;;;;;;2.17;67.12;100739.50;1349955;91;21518;-81
2022/03/05 07:47:01;;;;;;;26.10;14.87;;;;;;;2.26;66.90;100738.50;1349616;90;22849;-80
2022/03/05 07:49:28;;;;;;;24.47;13.57;;;;;;;2.39;66.35;100740.45;1349647;90;21736;-80
2022/03/05 07:51:58;;;;;;;24.40;13.37;;;;;;;2.48;64.87;100741.22;1349726;92;21546;-80
2022/03/05 07:54:26;;;;;;;26.10;12.93;;;;;;;2.46;64.56;100744.38;1349574;92;22362;-81
2022/03/05 07:56:53;;;;;;;27.23;14.37;;;;;;;2.62;64.41;100740.43;1349693;92;21566;-81
2022/03/05 07:59:21;;;;;;;23.23;14.07;;;;;;;2.86;64.42;100740.75;1349783;92;22439;-81
2022/03/05 08:01:48;;;;;;;27.67;13.50;;;;;;;3.05;62.71;100742.66;1349820;90;22700;-80
2022/03/05 08:04:15;;;;;;;23.77;11.93;;;;;;;2.91;61.29;100738.72;1349577;92;21698;-81
2022/03/05 08:06:42;;;;;;;21.97;13.67;;;;;;;3.16;62.22;100738.94;1349506;92;21748;-80
2022/03/05 08:09:09;;;;;;;21.03;12.27;;;;;;;3.34;61.56;100742.68;1349829;90;21696;-80
2022/03/05 08:11:37;;;;;;;14.53;7.50;;;;;;;3.55;61.90;100745.27;1335634;93;21738;-80
2022/03/05 08:14:04;;;;;;;19.83;8.60;;;;;;;3.56;57.28;100743.02;1349566;92;22690;-78
2022/03/05 08:16:32;;;;;;;15.93;9.67;;;;;;;3.41;56.32;100743.97;1349295;93;21607;-78
